sensor_id;sensor_type;location;lat;lon;timestamp;pressure;altitude;pressure_sealevel;temperature;humidity
79461;BME280;68929;42.666;23.324;2023-05-02T00:01:43;94812.94;;;14.98;53.98
79461;BME280;68929;42.666;23.324;2023-05-02T00:04:09;94830.63;;;15.04;54.29
79461;BME280;68929;42.666;23.324;2023-05-02T00:06:34;94825.50;;;15.14;53.12
79461;BME280;68929;42.666;23.324;2023-05-02T00:09:00;94837.91;;;15.20;53.37
79461;BME280;68929;42.666;23.324;2023-05-02T00:11:25;94820.69;;;15.11;53.71
79461;BME280;68929;42.666;23.324;2023-05-02T00:13:51;94833.41;;;15.38;52.90
79461;BME280;68929;42.666;23.324;2023-05-02T00:16:16;94832.53;;;15.32;53.31
79461;BME280;68929;42.666;23.324;2023-05-02T00:18:42;94828.00;;;15.33;53.48
79461;BME280;68929;42.666;23.324;2023-05-02T00:21:07;94813.25;;;15.13;53.38
79461;BME280;68929;42.666;23.324;2023-05-02T00:23:33;94841.91;;;15.63;53.07
79461;BME280;68929;42.666;23.324;2023-05-02T00:25:59;94829.22;;;15.13;53.92
79461;BME280;68929;42.666;23.324;2023-05-02T00:28:25;94825.44;;;14.98;54.25
79461;BME280;68929;42.666;23.324;2023-05-02T00:30:53;94850.06;;;14.77;55.12
79461;BME280;68929;42.666;23.324;2023-05-02T00:33:18;94846.47;;;14.71;55.43
79461;BME280;68929;42.666;23.324;2023-05-02T00:35:44;94846.38;;;14.55;55.53
79461;BME280;68929;42.666;23.324;2023-05-02T00:38:09;94835.16;;;14.64;55.61
79461;BME280;68929;42.666;23.324;2023-05-02T00:40:45;94863.56;;;14.75;55.08
79461;BME280;68929;42.666;23.324;2023-05-02T00:43:15;94849.19;;;14.88;55.08
79461;BME280;68929;42.666;23.324;2023-05-02T00:45:42;94870.03;;;14.79;55.17
79461;BME280;68929;42.666;23.324;2023-05-02T00:48:08;94868.91;;;14.75;55.80
79461;BME280;68929;42.666;23.324;2023-05-02T00:50:38;94875.94;;;14.81;55.72
79461;BME280;68929;42.666;23.324;2023-05-02T00:53:08;94877.66;;;14.87;55.46
79461;BME280;68929;42.666;23.324;2023-05-02T00:55:34;94864.97;;;14.89;54.84
79461;BME280;68929;42.666;23.324;2023-05-02T00:58:03;94869.53;;;15.05;54.96
79461;BME280;68929;42.666;23.324;2023-05-02T01:01:25;94855.19;;;15.06;54.26
79461;BME280;68929;42.666;23.324;2023-05-02T01:12:11;94850.34;;;15.03;54.42
79461;BME280;68929;42.666;23.324;2023-05-02T01:14:41;94859.84;;;14.99;54.85
79461;BME280;68929;42.666;23.324;2023-05-02T01:17:10;94866.31;;;15.03;54.96
79461;BME280;68929;42.666;23.324;2023-05-02T01:19:41;94863.31;;;14.88;55.49
79461;BME280;68929;42.666;23.324;2023-05-02T01:22:10;94864.84;;;14.84;55.76
79461;BME280;68929;42.666;23.324;2023-05-02T01:24:51;94853.66;;;14.59;56.32
79461;BME280;68929;42.666;23.324;2023-05-02T01:27:30;94842.56;;;14.39;56.44
79461;BME280;68929;42.666;23.324;2023-05-02T01:29:58;94832.72;;;14.39;56.50
79461;BME280;68929;42.666;23.324;2023-05-02T01:32:27;94854.69;;;14.70;56.38
79461;BME280;68929;42.666;23.324;2023-05-02T01:34:56;94843.38;;;15.02;55.05
79461;BME280;68929;42.666;23.324;2023-05-02T01:37:23;94855.47;;;14.93;55.45
79461;BME280;68929;42.666;23.324;2023-05-02T01:39:50;94845.84;;;14.92;55.32
79461;BME280;68929;42.666;23.324;2023-05-02T01:42:17;94866.56;;;14.90;56.08
79461;BME280;68929;42.666;23.324;2023-05-02T01:44:45;94860.47;;;14.78;55.97
79461;BME280;68929;42.666;23.324;2023-05-02T01:47:12;94859.63;;;14.89;55.54
79461;BME280;68929;42.666;23.324;2023-05-02T01:49:38;94875.00;;;14.87;55.76
79461;BME280;68929;42.666;23.324;2023-05-02T01:52:07;94862.31;;;14.78;55.59
79461;BME280;68929;42.666;23.324;2023-05-02T01:54:36;94863.50;;;14.47;57.00
79461;BME280;68929;42.666;23.324;2023-05-02T01:57:04;94865.69;;;14.50;56.82
79461;BME280;68929;42.666;23.324;2023-05-02T01:59:32;94840.44;;;13.95;57.63
79461;BME280;68929;42.666;23.324;2023-05-02T02:01:58;94838.13;;;13.87;58.37
79461;BME280;68929;42.666;23.324;2023-05-02T02:04:27;94849.00;;;13.97;58.66
79461;BME280;68929;42.666;23.324;2023-05-02T02:06:59;94852.50;;;13.68;59.37
79461;BME280;68929;42.666;23.324;2023-05-02T02:09:26;94856.81;;;13.92;58.64
79461;BME280;68929;42.666;23.324;2023-05-02T02:11:56;94832.56;;;13.77;58.71
79461;BME280;68929;42.666;23.324;2023-05-02T02:14:41;94852.19;;;13.76;59.35
79461;BME280;68929;42.666;23.324;2023-05-02T02:17:14;94849.66;;;13.81;59.18
79461;BME280;68929;42.666;23.324;2023-05-02T02:19:43;94833.25;;;13.84;58.77
79461;BME280;68929;42.666;23.324;2023-05-02T02:22:12;94825.03;;;13.74;58.58
79461;BME280;68929;42.666;23.324;2023-05-02T02:24:39;94845.28;;;13.86;58.46
79461;BME280;68929;42.666;23.324;2023-05-02T02:27:04;94845.56;;;13.55;59.67
79461;BME280;68929;42.666;23.324;2023-05-02T02:29:30;94852.28;;;13.69;59.24
79461;BME280;68929;42.666;23.324;2023-05-02T02:31:55;94845.47;;;13.32;59.89
79461;BME280;68929;42.666;23.324;2023-05-02T02:34:21;94836.19;;;13.23;60.23
79461;BME280;68929;42.666;23.324;2023-05-02T02:36:54;94859.50;;;13.50;59.52
79461;BME280;68929;42.666;23.324;2023-05-02T02:39:53;94858.06;;;13.66;58.98
79461;BME280;68929;42.666;23.324;2023-05-02T02:42:36;94867.41;;;13.69;59.45
79461;BME280;68929;42.666;23.324;2023-05-02T02:45:34;94874.34;;;13.70;59.32
79461;BME280;68929;42.666;23.324;2023-05-02T02:48:42;94859.84;;;13.54;59.76
79461;BME280;68929;42.666;23.324;2023-05-02T02:51:13;94847.81;;;13.40;59.60
79461;BME280;68929;42.666;23.324;2023-05-02T02:56:39;94847.28;;;13.49;59.79
79461;BME280;68929;42.666;23.324;2023-05-02T02:59:12;94863.13;;;13.68;59.48
79461;BME280;68929;42.666;23.324;2023-05-02T03:01:41;94871.09;;;13.68;59.26
79461;BME280;68929;42.666;23.324;2023-05-02T03:04:09;94851.22;;;13.58;59.25
79461;BME280;68929;42.666;23.324;2023-05-02T03:06:36;94875.44;;;13.50;60.00
79461;BME280;68929;42.666;23.324;2023-05-02T03:09:02;94871.81;;;13.15;60.45
79461;BME280;68929;42.666;23.324;2023-05-02T03:11:28;94883.06;;;13.29;60.72
79461;BME280;68929;42.666;23.324;2023-05-02T03:13:53;94865.19;;;13.24;60.34
79461;BME280;68929;42.666;23.324;2023-05-02T03:18:47;94865.34;;;13.11;60.73
79461;BME280;68929;42.666;23.324;2023-05-02T03:21:12;94893.41;;;13.19;60.94
79461;BME280;68929;42.666;23.324;2023-05-02T03:23:38;94870.31;;;13.08;60.71
79461;BME280;68929;42.666;23.324;2023-05-02T03:26:03;94893.19;;;13.38;60.35
79461;BME280;68929;42.666;23.324;2023-05-02T03:28:28;94893.81;;;13.22;60.54
79461;BME280;68929;42.666;23.324;2023-05-02T03:30:54;94886.44;;;13.24;60.53
79461;BME280;68929;42.666;23.324;2023-05-02T03:33:19;94874.41;;;13.04;60.76
79461;BME280;68929;42.666;23.324;2023-05-02T03:35:44;94891.19;;;12.98;61.86
79461;BME280;68929;42.666;23.324;2023-05-02T03:38:10;94904.06;;;13.48;60.13
79461;BME280;68929;42.666;23.324;2023-05-02T03:40:35;94883.72;;;13.42;60.28
79461;BME280;68929;42.666;23.324;2023-05-02T03:43:01;94873.38;;;13.52;59.38
79461;BME280;68929;42.666;23.324;2023-05-02T03:45:26;94898.25;;;13.70;59.48
79461;BME280;68929;42.666;23.324;2023-05-02T03:47:52;94903.44;;;13.64;58.93
79461;BME280;68929;42.666;23.324;2023-05-02T03:50:17;94911.19;;;13.66;59.32
79461;BME280;68929;42.666;23.324;2023-05-02T03:52:43;94909.72;;;13.82;58.68
79461;BME280;68929;42.666;23.324;2023-05-02T03:55:08;94905.56;;;13.86;58.23
79461;BME280;68929;42.666;23.324;2023-05-02T03:57:34;94903.06;;;13.91;58.67
79461;BME280;68929;42.666;23.324;2023-05-02T04:00:00;94894.38;;;13.84;58.49
79461;BME280;68929;42.666;23.324;2023-05-02T04:02:25;94893.38;;;14.08;58.35
79461;BME280;68929;42.666;23.324;2023-05-02T04:04:50;94891.75;;;14.07;57.76
79461;BME280;68929;42.666;23.324;2023-05-02T04:07:16;94902.88;;;14.04;58.60
79461;BME280;68929;42.666;23.324;2023-05-02T04:09:44;94898.28;;;14.34;57.16
79461;BME280;68929;42.666;23.324;2023-05-02T04:12:09;94886.06;;;14.33;56.70
79461;BME280;68929;42.666;23.324;2023-05-02T04:14:35;94882.75;;;14.08;57.61
79461;BME280;68929;42.666;23.324;2023-05-02T04:17:00;94906.59;;;14.26;56.98
79461;BME280;68929;42.666;23.324;2023-05-02T04:19:25;94904.16;;;14.24;57.11
79461;BME280;68929;42.666;23.324;2023-05-02T04:21:51;94880.91;;;14.20;57.51
79461;BME280;68929;42.666;23.324;2023-05-02T04:24:17;94865.34;;;14.47;56.37
79461;BME280;68929;42.666;23.324;2023-05-02T04:26:43;94879.44;;;14.35;56.84
79461;BME280;68929;42.666;23.324;2023-05-02T04:29:08;94900.94;;;14.69;56.58
79461;BME280;68929;42.666;23.324;2023-05-02T04:31:34;94884.53;;;14.72;55.19
79461;BME280;68929;42.666;23.324;2023-05-02T04:33:59;94913.09;;;14.76;56.02
79461;BME280;68929;42.666;23.324;2023-05-02T04:36:25;94914.72;;;14.77;56.11
79461;BME280;68929;42.666;23.324;2023-05-02T04:38:52;94899.69;;;14.71;56.30
79461;BME280;68929;42.666;23.324;2023-05-02T04:41:18;94912.88;;;14.66;55.85
79461;BME280;68929;42.666;23.324;2023-05-02T04:43:43;94890.44;;;14.62;55.78
79461;BME280;68929;42.666;23.324;2023-05-02T04:46:09;94906.03;;;14.93;54.80
79461;BME280;68929;42.666;23.324;2023-05-02T04:48:34;94887.16;;;14.83;54.17
79461;BME280;68929;42.666;23.324;2023-05-02T04:51:00;94902.44;;;14.65;55.15
79461;BME280;68929;42.666;23.324;2023-05-02T04:53:25;94886.84;;;14.68;54.88
79461;BME280;68929;42.666;23.324;2023-05-02T04:55:51;94906.63;;;14.72;53.97
79461;BME280;68929;42.666;23.324;2023-05-02T04:58:16;94914.94;;;14.87;53.91
79461;BME280;68929;42.666;23.324;2023-05-02T05:00:42;94900.38;;;14.78;54.01
79461;BME280;68929;42.666;23.324;2023-05-02T05:03:08;94903.63;;;14.80;53.99
79461;BME280;68929;42.666;23.324;2023-05-02T05:05:33;94897.94;;;14.42;54.39
79461;BME280;68929;42.666;23.324;2023-05-02T05:07:59;94910.78;;;14.45;54.83
79461;BME280;68929;42.666;23.324;2023-05-02T05:10:25;94915.88;;;14.35;54.84
79461;BME280;68929;42.666;23.324;2023-05-02T05:12:51;94899.44;;;14.38;54.22
79461;BME280;68929;42.666;23.324;2023-05-02T05:15:18;94895.94;;;14.26;54.88
79461;BME280;68929;42.666;23.324;2023-05-02T05:17:48;94895.47;;;14.06;55.73
79461;BME280;68929;42.666;23.324;2023-05-02T05:20:16;94918.81;;;14.27;54.66
79461;BME280;68929;42.666;23.324;2023-05-02T05:22:42;94916.22;;;14.50;54.98
79461;BME280;68929;42.666;23.324;2023-05-02T05:25:08;94904.88;;;14.31;55.14
79461;BME280;68929;42.666;23.324;2023-05-02T05:27:34;94922.53;;;14.26;55.47
79461;BME280;68929;42.666;23.324;2023-05-02T05:30:00;94926.53;;;14.35;54.75
79461;BME280;68929;42.666;23.324;2023-05-02T05:32:26;94894.78;;;14.22;56.02
79461;BME280;68929;42.666;23.324;2023-05-02T05:34:55;94925.97;;;14.15;54.94
79461;BME280;68929;42.666;23.324;2023-05-02T05:37:21;94917.78;;;14.28;55.15
79461;BME280;68929;42.666;23.324;2023-05-02T05:39:47;94928.47;;;14.39;55.74
79461;BME280;68929;42.666;23.324;2023-05-02T05:42:14;94915.53;;;14.55;53.97
79461;BME280;68929;42.666;23.324;2023-05-02T05:44:40;94936.69;;;14.61;54.55
79461;BME280;68929;42.666;23.324;2023-05-02T05:47:05;94916.78;;;14.52;54.41
79461;BME280;68929;42.666;23.324;2023-05-02T05:49:31;94925.84;;;14.74;54.19
79461;BME280;68929;42.666;23.324;2023-05-02T05:51:57;94945.25;;;15.09;53.31
79461;BME280;68929;42.666;23.324;2023-05-02T05:54:22;94923.94;;;15.09;53.08
79461;BME280;68929;42.666;23.324;2023-05-02T05:56:48;94943.44;;;15.50;51.51
79461;BME280;68929;42.666;23.324;2023-05-02T05:59:14;94933.53;;;15.22;52.87
79461;BME280;68929;42.666;23.324;2023-05-02T06:01:39;94943.56;;;15.32;51.97
79461;BME280;68929;42.666;23.324;2023-05-02T06:04:05;94954.34;;;15.25;52.20
79461;BME280;68929;42.666;23.324;2023-05-02T06:06:31;94937.22;;;15.21;51.65
79461;BME280;68929;42.666;23.324;2023-05-02T06:08:57;94925.91;;;15.14;52.16
79461;BME280;68929;42.666;23.324;2023-05-02T06:11:23;94939.66;;;15.23;52.20
79461;BME280;68929;42.666;23.324;2023-05-02T06:13:52;94933.28;;;15.35;51.43
79461;BME280;68929;42.666;23.324;2023-05-02T06:16:18;94954.88;;;15.62;51.39
79461;BME280;68929;42.666;23.324;2023-05-02T06:18:48;94939.25;;;15.82;50.21
79461;BME280;68929;42.666;23.324;2023-05-02T06:21:14;94945.03;;;16.35;48.22
79461;BME280;68929;42.666;23.324;2023-05-02T06:23:39;94926.50;;;15.84;50.67
79461;BME280;68929;42.666;23.324;2023-05-02T06:26:05;94899.16;;;15.60;49.50
79461;BME280;68929;42.666;23.324;2023-05-02T06:28:31;94922.63;;;15.75;49.47
79461;BME280;68929;42.666;23.324;2023-05-02T06:30:58;94924.22;;;15.76;49.17
79461;BME280;68929;42.666;23.324;2023-05-02T06:33:25;94914.03;;;15.73;49.26
79461;BME280;68929;42.666;23.324;2023-05-02T06:35:52;94923.28;;;15.82;49.37
79461;BME280;68929;42.666;23.324;2023-05-02T06:38:18;94935.78;;;16.26;48.98
79461;BME280;68929;42.666;23.324;2023-05-02T06:40:43;94921.41;;;16.44;48.29
79461;BME280;68929;42.666;23.324;2023-05-02T06:43:10;94924.00;;;16.22;48.25
79461;BME280;68929;42.666;23.324;2023-05-02T06:45:35;94922.84;;;16.18;48.23
79461;BME280;68929;42.666;23.324;2023-05-02T06:48:01;94917.41;;;16.13;47.57
79461;BME280;68929;42.666;23.324;2023-05-02T06:50:35;94904.34;;;16.28;47.65
79461;BME280;68929;42.666;23.324;2023-05-02T06:53:12;94915.19;;;16.38;45.73
79461;BME280;68929;42.666;23.324;2023-05-02T06:55:42;94931.31;;;16.60;47.86
79461;BME280;68929;42.666;23.324;2023-05-02T06:58:11;94894.00;;;16.65;46.68
79461;BME280;68929;42.666;23.324;2023-05-02T07:00:37;94876.84;;;16.77;46.23
79461;BME280;68929;42.666;23.324;2023-05-02T07:03:02;94886.75;;;16.99;45.59
79461;BME280;68929;42.666;23.324;2023-05-02T07:05:28;94892.38;;;16.81;45.17
79461;BME280;68929;42.666;23.324;2023-05-02T07:08:03;94910.06;;;16.87;45.60
79461;BME280;68929;42.666;23.324;2023-05-02T07:10:29;94898.13;;;16.72;45.18
79461;BME280;68929;42.666;23.324;2023-05-02T07:13:02;94919.69;;;16.88;45.93
79461;BME280;68929;42.666;23.324;2023-05-02T07:15:27;94908.00;;;17.10;44.74
79461;BME280;68929;42.666;23.324;2023-05-02T07:17:59;94904.81;;;17.13;45.77
79461;BME280;68929;42.666;23.324;2023-05-02T07:20:24;94910.75;;;17.37;44.05
79461;BME280;68929;42.666;23.324;2023-05-02T07:22:50;94905.78;;;17.45;42.70
79461;BME280;68929;42.666;23.324;2023-05-02T07:25:15;94922.72;;;17.78;42.19
79461;BME280;68929;42.666;23.324;2023-05-02T07:27:45;94937.66;;;18.00;42.74
79461;BME280;68929;42.666;23.324;2023-05-02T07:30:14;94923.53;;;18.05;41.60
79461;BME280;68929;42.666;23.324;2023-05-02T07:32:39;94894.38;;;18.03;42.16
79461;BME280;68929;42.666;23.324;2023-05-02T07:35:05;94928.31;;;17.98;42.82
79461;BME280;68929;42.666;23.324;2023-05-02T07:37:34;94924.91;;;18.61;40.51
79461;BME280;68929;42.666;23.324;2023-05-02T07:40:00;94900.34;;;18.74;41.53
79461;BME280;68929;42.666;23.324;2023-05-02T07:42:32;94901.50;;;18.88;40.07
79461;BME280;68929;42.666;23.324;2023-05-02T07:45:09;94948.06;;;18.82;40.20
79461;BME280;68929;42.666;23.324;2023-05-02T07:47:38;94933.50;;;18.68;40.89
79461;BME280;68929;42.666;23.324;2023-05-02T07:50:04;94928.47;;;18.76;41.52
79461;BME280;68929;42.666;23.324;2023-05-02T07:52:34;94944.50;;;19.13;40.79
79461;BME280;68929;42.666;23.324;2023-05-02T07:54:59;94946.19;;;19.24;39.02
79461;BME280;68929;42.666;23.324;2023-05-02T07:57:25;94937.13;;;19.30;38.32
79461;BME280;68929;42.666;23.324;2023-05-02T07:59:52;94938.75;;;19.31;39.64
79461;BME280;68929;42.666;23.324;2023-05-02T08:02:17;94921.78;;;19.21;39.54
79461;BME280;68929;42.666;23.324;2023-05-02T08:04:46;94934.03;;;19.48;38.51
79461;BME280;68929;42.666;23.324;2023-05-02T08:07:12;94940.56;;;19.72;38.43
79461;BME280;68929;42.666;23.324;2023-05-02T08:09:37;94932.72;;;19.56;38.88
79461;BME280;68929;42.666;23.324;2023-05-02T08:12:03;94923.13;;;19.18;39.38
79461;BME280;68929;42.666;23.324;2023-05-02T08:14:29;94922.16;;;19.34;38.22
79461;BME280;68929;42.666;23.324;2023-05-02T08:16:55;94922.06;;;19.24;39.38
79461;BME280;68929;42.666;23.324;2023-05-02T08:19:22;94944.88;;;19.78;37.80
79461;BME280;68929;42.666;23.324;2023-05-02T08:21:47;94906.72;;;19.56;38.08
79461;BME280;68929;42.666;23.324;2023-05-02T08:24:20;94906.03;;;20.11;37.36
79461;BME280;68929;42.666;23.324;2023-05-02T08:26:49;94911.75;;;20.70;37.23
79461;BME280;68929;42.666;23.324;2023-05-02T08:29:16;94934.84;;;20.86;36.26
79461;BME280;68929;42.666;23.324;2023-05-02T08:31:47;94904.78;;;20.54;36.75
79461;BME280;68929;42.666;23.324;2023-05-02T08:34:15;94934.31;;;20.69;37.13
79461;BME280;68929;42.666;23.324;2023-05-02T08:36:41;94922.22;;;20.61;36.92
79461;BME280;68929;42.666;23.324;2023-05-02T08:39:06;94913.09;;;20.52;35.91
79461;BME280;68929;42.666;23.324;2023-05-02T08:41:35;94887.31;;;20.36;37.81
79461;BME280;68929;42.666;23.324;2023-05-02T08:44:01;94903.16;;;20.33;36.83
79461;BME280;68929;42.666;23.324;2023-05-02T08:46:27;94933.78;;;20.92;35.99
79461;BME280;68929;42.666;23.324;2023-05-02T08:48:54;94901.53;;;20.62;35.41
79461;BME280;68929;42.666;23.324;2023-05-02T08:51:23;94921.94;;;20.88;35.52
79461;BME280;68929;42.666;23.324;2023-05-02T08:53:51;94935.38;;;20.93;36.25
79461;BME280;68929;42.666;23.324;2023-05-02T08:56:16;94897.97;;;21.27;35.26
79461;BME280;68929;42.666;23.324;2023-05-02T08:58:44;94887.47;;;21.30;35.06
79461;BME280;68929;42.666;23.324;2023-05-02T09:01:17;94905.25;;;21.11;35.68
79461;BME280;68929;42.666;23.324;2023-05-02T09:03:44;94902.59;;;20.76;35.31
79461;BME280;68929;42.666;23.324;2023-05-02T09:06:13;94912.03;;;20.48;36.12
79461;BME280;68929;42.666;23.324;2023-05-02T09:08:40;94913.28;;;20.16;36.34
79461;BME280;68929;42.666;23.324;2023-05-02T09:11:06;94905.63;;;19.57;37.99
79461;BME280;68929;42.666;23.324;2023-05-02T09:13:37;94925.09;;;20.00;37.58
79461;BME280;68929;42.666;23.324;2023-05-02T09:16:13;94911.91;;;19.93;36.60
79461;BME280;68929;42.666;23.324;2023-05-02T09:18:46;94897.53;;;19.42;37.53
79461;BME280;68929;42.666;23.324;2023-05-02T09:21:18;94914.78;;;19.66;37.84
79461;BME280;68929;42.666;23.324;2023-05-02T09:23:56;94905.78;;;20.08;36.51
79461;BME280;68929;42.666;23.324;2023-05-02T09:26:23;94912.25;;;20.22;36.19
79461;BME280;68929;42.666;23.324;2023-05-02T09:28:55;94908.78;;;20.71;35.83
79461;BME280;68929;42.666;23.324;2023-05-02T09:33:53;94902.41;;;21.67;34.26
79461;BME280;68929;42.666;23.324;2023-05-02T09:36:21;94894.81;;;21.79;32.72
79461;BME280;68929;42.666;23.324;2023-05-02T09:38:48;94895.38;;;21.71;33.93
79461;BME280;68929;42.666;23.324;2023-05-02T09:41:15;94891.88;;;21.70;33.47
79461;BME280;68929;42.666;23.324;2023-05-02T09:43:55;94901.06;;;22.18;32.54
79461;BME280;68929;42.666;23.324;2023-05-02T09:46:21;94875.88;;;21.99;32.24
79461;BME280;68929;42.666;23.324;2023-05-02T09:49:03;94869.53;;;21.80;32.90
79461;BME280;68929;42.666;23.324;2023-05-02T09:51:28;94893.63;;;21.41;32.13
79461;BME280;68929;42.666;23.324;2023-05-02T09:53:56;94873.53;;;21.18;33.73
79461;BME280;68929;42.666;23.324;2023-05-02T09:56:21;94882.34;;;21.98;33.21
79461;BME280;68929;42.666;23.324;2023-05-02T09:58:46;94877.69;;;22.81;30.45
79461;BME280;68929;42.666;23.324;2023-05-02T10:01:16;94851.94;;;22.36;30.52
79461;BME280;68929;42.666;23.324;2023-05-02T10:03:45;94889.25;;;22.14;32.78
79461;BME280;68929;42.666;23.324;2023-05-02T10:06:18;94858.75;;;22.62;30.76
79461;BME280;68929;42.666;23.324;2023-05-02T10:08:44;94855.13;;;23.53;30.97
79461;BME280;68929;42.666;23.324;2023-05-02T10:11:12;94876.34;;;24.20;28.89
79461;BME280;68929;42.666;23.324;2023-05-02T10:13:45;94851.59;;;24.32;27.83
79461;BME280;68929;42.666;23.324;2023-05-02T10:16:12;94867.41;;;24.89;27.33
79461;BME280;68929;42.666;23.324;2023-05-02T10:19:08;94861.06;;;25.39;26.28
79461;BME280;68929;42.666;23.324;2023-05-02T10:21:33;94850.25;;;25.67;26.84
79461;BME280;68929;42.666;23.324;2023-05-02T10:24:00;94862.66;;;26.08;25.24
79461;BME280;68929;42.666;23.324;2023-05-02T10:26:28;94869.13;;;25.72;26.90
79461;BME280;68929;42.666;23.324;2023-05-02T10:28:58;94860.31;;;26.96;25.57
79461;BME280;68929;42.666;23.324;2023-05-02T10:31:24;94859.84;;;27.33;25.21
79461;BME280;68929;42.666;23.324;2023-05-02T10:33:51;94853.09;;;27.52;24.14
79461;BME280;68929;42.666;23.324;2023-05-02T10:36:21;94851.34;;;27.56;24.46
79461;BME280;68929;42.666;23.324;2023-05-02T10:38:47;94852.72;;;27.76;24.08
79461;BME280;68929;42.666;23.324;2023-05-02T10:41:25;94850.75;;;27.77;23.55
79461;BME280;68929;42.666;23.324;2023-05-02T10:43:52;94847.69;;;27.52;23.77
79461;BME280;68929;42.666;23.324;2023-05-02T10:46:38;94830.50;;;26.51;24.63
79461;BME280;68929;42.666;23.324;2023-05-02T10:49:09;94852.72;;;26.62;25.52
79461;BME280;68929;42.666;23.324;2023-05-02T10:51:37;94817.47;;;26.62;24.64
79461;BME280;68929;42.666;23.324;2023-05-02T10:54:21;94846.81;;;26.60;23.85
79461;BME280;68929;42.666;23.324;2023-05-02T10:57:00;94839.78;;;26.81;23.94
79461;BME280;68929;42.666;23.324;2023-05-02T10:59:36;94836.91;;;27.08;23.96
79461;BME280;68929;42.666;23.324;2023-05-02T11:02:04;94839.50;;;27.13;24.46
79461;BME280;68929;42.666;23.324;2023-05-02T11:05:01;94835.19;;;27.43;23.51
79461;BME280;68929;42.666;23.324;2023-05-02T11:07:34;94834.91;;;26.47;24.95
79461;BME280;68929;42.666;23.324;2023-05-02T11:12:50;94834.97;;;24.76;26.57
79461;BME280;68929;42.666;23.324;2023-05-02T11:20:26;94827.19;;;25.28;26.66
79461;BME280;68929;42.666;23.324;2023-05-02T11:22:53;94819.34;;;25.81;26.16
79461;BME280;68929;42.666;23.324;2023-05-02T11:25:34;94826.53;;;25.99;24.64
79461;BME280;68929;42.666;23.324;2023-05-02T11:28:00;94814.47;;;25.56;25.65
79461;BME280;68929;42.666;23.324;2023-05-02T11:30:37;94821.84;;;25.91;25.42
79461;BME280;68929;42.666;23.324;2023-05-02T11:35:34;94797.72;;;25.00;26.13
79461;BME280;68929;42.666;23.324;2023-05-02T11:38:20;94811.19;;;25.59;25.76
79461;BME280;68929;42.666;23.324;2023-05-02T11:40:53;94800.19;;;26.27;25.25
79461;BME280;68929;42.666;23.324;2023-05-02T11:43:19;94803.19;;;26.26;24.98
79461;BME280;68929;42.666;23.324;2023-05-02T11:45:49;94779.91;;;25.12;26.04
79461;BME280;68929;42.666;23.324;2023-05-02T11:48:17;94794.66;;;25.96;25.50
79461;BME280;68929;42.666;23.324;2023-05-02T11:50:43;94792.81;;;26.94;24.43
79461;BME280;68929;42.666;23.324;2023-05-02T11:53:11;94803.19;;;27.88;23.66
79461;BME280;68929;42.666;23.324;2023-05-02T11:55:38;94799.16;;;27.29;24.30
79461;BME280;68929;42.666;23.324;2023-05-02T11:58:12;94787.53;;;27.28;24.44
79461;BME280;68929;42.666;23.324;2023-05-02T12:00:38;94773.75;;;27.55;23.93
79461;BME280;68929;42.666;23.324;2023-05-02T12:03:03;94796.00;;;27.92;23.02
79461;BME280;68929;42.666;23.324;2023-05-02T12:05:30;94787.66;;;27.80;23.79
79461;BME280;68929;42.666;23.324;2023-05-02T12:07:56;94776.19;;;28.00;22.94
79461;BME280;68929;42.666;23.324;2023-05-02T12:10:34;94764.69;;;28.37;23.92
79461;BME280;68929;42.666;23.324;2023-05-02T12:13:04;94773.16;;;29.54;20.88
79461;BME280;68929;42.666;23.324;2023-05-02T12:15:30;94761.78;;;28.42;22.25
79461;BME280;68929;42.666;23.324;2023-05-02T12:17:56;94760.38;;;28.10;23.66
79461;BME280;68929;42.666;23.324;2023-05-02T12:20:21;94771.25;;;28.27;22.76
79461;BME280;68929;42.666;23.324;2023-05-02T12:22:47;94764.66;;;28.71;22.41
79461;BME280;68929;42.666;23.324;2023-05-02T12:25:14;94763.97;;;28.91;22.75
79461;BME280;68929;42.666;23.324;2023-05-02T12:27:39;94749.50;;;28.10;22.42
79461;BME280;68929;42.666;23.324;2023-05-02T12:30:05;94751.34;;;27.41;23.50
79461;BME280;68929;42.666;23.324;2023-05-02T12:32:32;94740.00;;;27.00;23.55
79461;BME280;68929;42.666;23.324;2023-05-02T12:35:21;94747.75;;;27.89;22.89
79461;BME280;68929;42.666;23.324;2023-05-02T12:40:34;94721.84;;;28.34;21.32
79461;BME280;68929;42.666;23.324;2023-05-02T12:43:02;94719.66;;;28.82;20.65
79461;BME280;68929;42.666;23.324;2023-05-02T12:45:36;94745.53;;;28.08;23.25
79461;BME280;68929;42.666;23.324;2023-05-02T12:48:23;94731.28;;;28.11;22.76
79461;BME280;68929;42.666;23.324;2023-05-02T12:50:50;94711.22;;;28.58;20.96
79461;BME280;68929;42.666;23.324;2023-05-02T12:53:16;94730.59;;;28.57;21.88
79461;BME280;68929;42.666;23.324;2023-05-02T12:56:02;94703.81;;;28.84;21.18
79461;BME280;68929;42.666;23.324;2023-05-02T12:58:48;94724.75;;;28.12;21.85
79461;BME280;68929;42.666;23.324;2023-05-02T13:01:15;94728.19;;;28.55;22.29
79461;BME280;68929;42.666;23.324;2023-05-02T13:03:42;94726.44;;;28.59;21.94
79461;BME280;68929;42.666;23.324;2023-05-02T13:06:10;94722.81;;;28.21;22.78
79461;BME280;68929;42.666;23.324;2023-05-02T13:08:37;94709.31;;;28.50;22.62
79461;BME280;68929;42.666;23.324;2023-05-02T13:11:03;94701.25;;;28.79;21.39
79461;BME280;68929;42.666;23.324;2023-05-02T13:13:29;94717.53;;;27.82;22.42
79461;BME280;68929;42.666;23.324;2023-05-02T13:15:55;94731.50;;;27.32;23.57
79461;BME280;68929;42.666;23.324;2023-05-02T13:18:20;94731.28;;;28.02;22.04
79461;BME280;68929;42.666;23.324;2023-05-02T13:21:03;94740.84;;;27.74;23.46
79461;BME280;68929;42.666;23.324;2023-05-02T13:23:29;94727.94;;;27.97;22.00
79461;BME280;68929;42.666;23.324;2023-05-02T13:25:55;94703.00;;;28.12;22.49
79461;BME280;68929;42.666;23.324;2023-05-02T13:28:24;94737.19;;;27.70;22.66